createdAt,value
2018-05-25T00:02:10.415Z,17.70
2018-05-25T00:04:39.359Z,17.40
2018-05-25T00:07:07.480Z,17.70
2018-05-25T00:09:36.445Z,17.30
2018-05-25T00:12:04.577Z,17.40
2018-05-25T00:14:32.716Z,17.30
2018-05-25T00:17:01.740Z,17.40
2018-05-25T00:19:29.885Z,17.50
2018-05-25T00:21:58.810Z,17.40
2018-05-25T00:24:26.973Z,17.70
2018-05-25T00:38:46.381Z,17.30
2018-05-25T00:41:15.309Z,17.50
2018-05-25T00:43:43.511Z,17.40
2018-05-25T00:46:11.674Z,17.50
2018-05-25T00:48:39.830Z,17.60
2018-05-25T00:51:08.009Z,17.50
2018-05-25T00:53:36.213Z,17.40
2018-05-25T00:56:04.348Z,17.60
2018-05-25T00:58:32.464Z,17.80
2018-05-25T01:01:00.818Z,17.60
2018-05-25T01:03:29.012Z,17.50
2018-05-25T01:05:57.181Z,17.60
2018-05-25T01:08:25.457Z,17.80
2018-05-25T01:10:53.596Z,17.50
2018-05-25T01:13:21.749Z,17.30
2018-05-25T01:15:50.042Z,17.30
2018-05-25T01:18:18.181Z,17.40
2018-05-25T01:20:47.223Z,17.50
2018-05-25T01:23:15.422Z,17.40
2018-05-25T01:25:43.570Z,17.60
2018-05-25T01:28:11.730Z,17.50
2018-05-25T01:30:39.905Z,17.70
2018-05-25T01:33:08.046Z,17.50
2018-05-25T01:35:36.241Z,17.60
2018-05-25T01:38:04.400Z,17.40
2018-05-25T01:40:33.271Z,17.50
2018-05-25T01:43:02.237Z,17.50
2018-05-25T01:45:30.410Z,17.50
2018-05-25T01:47:58.585Z,17.30
2018-05-25T01:50:26.783Z,17.20
2018-05-25T01:52:55.721Z,17.40
2018-05-25T01:55:23.937Z,17.30
2018-05-25T01:57:52.889Z,17.40
2018-05-25T02:00:21.041Z,17.20
2018-05-25T02:02:49.229Z,17.20
2018-05-25T02:05:17.389Z,17.30
2018-05-25T02:07:45.554Z,17.30
2018-05-25T02:10:13.702Z,17.10
2018-05-25T02:12:42.650Z,17.20
2018-05-25T02:15:10.802Z,17.30
2018-05-25T02:17:38.972Z,17.20
2018-05-25T02:20:07.140Z,17.10
2018-05-25T02:22:35.273Z,17.20
2018-05-25T02:25:04.218Z,17.10
2018-05-25T02:27:32.373Z,16.90
2018-05-25T02:30:01.346Z,17.20
2018-05-25T02:32:29.534Z,16.80
2018-05-25T02:34:57.799Z,16.80
2018-05-25T02:37:25.930Z,16.90
2018-05-25T02:39:54.086Z,16.80
2018-05-25T02:42:22.299Z,16.80
2018-05-25T02:44:51.289Z,16.80
2018-05-25T02:47:20.240Z,16.70
2018-05-25T02:49:49.227Z,16.70
2018-05-25T02:52:17.433Z,16.60
2018-05-25T02:54:45.560Z,16.70
2018-05-25T02:57:13.750Z,16.60
2018-05-25T02:59:41.910Z,16.50
2018-05-25T03:02:10.040Z,16.80
2018-05-25T03:04:38.266Z,16.70
2018-05-25T03:07:06.446Z,16.70
2018-05-25T03:09:34.639Z,16.60
2018-05-25T03:12:02.823Z,16.60
2018-05-25T03:14:31.708Z,16.70
2018-05-25T03:16:59.883Z,16.60
2018-05-25T03:19:28.823Z,16.70
2018-05-25T03:21:56.965Z,16.80
2018-05-25T03:24:25.943Z,16.80
2018-05-25T03:26:54.890Z,16.90
2018-05-25T03:29:23.024Z,16.70
2018-05-25T03:31:51.239Z,16.70
2018-05-25T03:34:19.862Z,16.90
2018-05-25T03:36:48.827Z,16.80
2018-05-25T03:39:17.018Z,17.00
2018-05-25T03:41:45.166Z,16.90
2018-05-25T03:44:13.362Z,16.60
2018-05-25T03:46:41.528Z,16.80
2018-05-25T03:49:10.351Z,16.90
2018-05-25T03:51:38.886Z,17.00
2018-05-25T03:54:07.079Z,17.10
2018-05-25T03:56:35.246Z,16.80
2018-05-25T03:59:21.452Z,16.90
2018-05-25T04:01:58.211Z,17.10
2018-05-25T04:04:26.475Z,17.00
2018-05-25T04:06:54.716Z,17.40
2018-05-25T04:09:22.874Z,17.40
2018-05-25T04:11:51.082Z,17.40
2018-05-25T04:14:19.268Z,17.40
2018-05-25T04:16:47.521Z,17.50
2018-05-25T04:19:15.669Z,17.50
2018-05-25T04:21:43.850Z,17.70
2018-05-25T04:24:11.993Z,17.90
2018-05-25T04:26:40.876Z,17.90
2018-05-25T04:29:09.277Z,18.00
2018-05-25T04:31:37.815Z,18.10
2018-05-25T04:34:05.955Z,18.10
2018-05-25T04:36:34.085Z,17.80
2018-05-25T04:39:02.235Z,18.10
2018-05-25T04:41:30.349Z,18.20
2018-05-25T04:43:58.513Z,18.20
2018-05-25T04:46:28.270Z,18.40
2018-05-25T04:48:56.590Z,18.50
2018-05-25T04:51:26.162Z,18.70
2018-05-25T04:53:54.352Z,18.90
2018-05-25T04:56:22.593Z,18.50
2018-05-25T04:58:50.789Z,18.80
2018-05-25T05:01:18.950Z,18.80
2018-05-25T05:03:47.094Z,18.80
2018-05-25T05:06:15.289Z,19.00
2018-05-25T05:08:43.499Z,19.10
2018-05-25T05:11:12.495Z,19.30
2018-05-25T05:13:41.406Z,19.00
2018-05-25T05:16:10.450Z,19.30
2018-05-25T05:18:38.618Z,19.50
2018-05-25T05:21:06.778Z,19.40
2018-05-25T05:23:34.963Z,19.40
2018-05-25T05:26:03.120Z,19.40
2018-05-25T05:28:31.289Z,19.60
2018-05-25T05:30:59.490Z,19.90
2018-05-25T05:33:27.666Z,19.90
2018-05-25T05:35:55.846Z,19.90
2018-05-25T05:38:24.030Z,20.20
2018-05-25T05:40:52.895Z,20.10
2018-05-25T05:43:21.170Z,20.10
2018-05-25T05:45:49.450Z,20.00
2018-05-25T05:48:17.632Z,20.30
2018-05-25T05:50:45.756Z,20.50
2018-05-25T05:53:13.930Z,20.30
2018-05-25T05:55:42.095Z,20.40
2018-05-25T05:58:10.298Z,20.80
2018-05-25T06:00:38.569Z,20.80
2018-05-25T06:03:06.708Z,20.80
2018-05-25T06:05:34.825Z,20.60
2018-05-25T06:08:02.986Z,20.80
2018-05-25T06:10:31.129Z,20.90
2018-05-25T06:12:59.289Z,21.10
2018-05-25T06:15:28.212Z,21.20
2018-05-25T06:17:56.402Z,21.40
2018-05-25T06:20:24.532Z,21.10
2018-05-25T06:22:52.703Z,21.10
2018-05-25T06:25:20.911Z,21.50
2018-05-25T06:27:49.077Z,21.60
2018-05-25T06:30:17.243Z,21.60
2018-05-25T06:32:45.431Z,21.80
2018-05-25T06:35:13.582Z,21.80
2018-05-25T06:37:41.757Z,22.10
2018-05-25T06:40:09.934Z,22.00
2018-05-25T06:42:38.082Z,22.30
2018-05-25T06:45:07.123Z,22.10
2018-05-25T06:47:35.303Z,22.40
2018-05-25T06:50:03.500Z,22.30
2018-05-25T06:52:31.664Z,22.60
2018-05-25T06:54:59.788Z,22.50
2018-05-25T06:57:27.973Z,22.70
2018-05-25T06:59:56.142Z,22.70
2018-05-25T07:02:24.327Z,22.90
2018-05-25T07:04:52.456Z,23.20
2018-05-25T07:07:21.408Z,23.20
2018-05-25T07:09:49.557Z,23.20
2018-05-25T07:12:17.680Z,23.30
2018-05-25T07:14:45.845Z,23.50
2018-05-25T07:17:14.769Z,23.60
2018-05-25T07:19:43.826Z,23.50
2018-05-25T07:22:12.266Z,23.80
2018-05-25T07:24:40.435Z,23.70
2018-05-25T07:27:08.608Z,23.90
2018-05-25T07:29:36.822Z,24.10
2018-05-25T07:32:04.949Z,23.90
2018-05-25T07:34:33.138Z,24.10
2018-05-25T07:37:01.315Z,24.30
2018-05-25T07:39:29.450Z,24.40
2018-05-25T07:41:57.735Z,24.70
2018-05-25T07:44:25.903Z,24.80
2018-05-25T07:46:54.102Z,25.00
2018-05-25T07:49:22.278Z,25.00
2018-05-25T07:51:50.461Z,25.10
2018-05-25T07:54:18.689Z,25.10
2018-05-25T07:56:46.909Z,25.20
2018-05-25T07:59:15.081Z,25.40
2018-05-25T08:01:43.257Z,25.60
2018-05-25T08:04:11.597Z,25.50
2018-05-25T08:06:39.739Z,25.60
2018-05-25T08:09:08.621Z,25.60
2018-05-25T08:11:36.755Z,25.50
2018-05-25T08:14:04.906Z,25.40
2018-05-25T08:16:33.063Z,25.40
2018-05-25T08:19:01.260Z,25.50
2018-05-25T08:21:29.426Z,25.40
2018-05-25T08:23:57.602Z,25.60
2018-05-25T08:26:26.422Z,25.40
2018-05-25T08:28:54.553Z,25.60
2018-05-25T08:31:22.741Z,25.90
2018-05-25T08:33:50.868Z,26.00
2018-05-25T08:36:19.803Z,26.20
2018-05-25T08:38:47.951Z,26.20
2018-05-25T08:41:16.104Z,26.30
2018-05-25T08:43:44.987Z,26.30
2018-05-25T08:46:13.138Z,26.70
2018-05-25T08:48:41.602Z,26.60
2018-05-25T08:51:09.658Z,26.60
2018-05-25T08:53:37.826Z,26.70
2018-05-25T08:56:05.983Z,26.80
2018-05-25T08:58:34.163Z,26.60
2018-05-25T09:01:02.328Z,26.80
2018-05-25T09:03:30.505Z,26.90
2018-05-25T09:05:58.691Z,26.70
2018-05-25T09:08:26.862Z,27.10
2018-05-25T09:10:55.028Z,27.10
2018-05-25T09:13:23.179Z,27.00
2018-05-25T09:15:52.068Z,27.00
2018-05-25T09:18:20.981Z,27.10
2018-05-25T09:20:49.195Z,27.00
2018-05-25T09:23:17.369Z,26.70
2018-05-25T09:25:45.599Z,26.80
2018-05-25T09:28:13.872Z,26.90
2018-05-25T09:30:42.095Z,26.80
2018-05-25T09:33:10.241Z,27.10
2018-05-25T09:35:38.380Z,27.10
2018-05-25T09:38:07.279Z,27.30
2018-05-25T09:40:35.470Z,27.00
2018-05-25T09:43:03.655Z,27.20
2018-05-25T09:45:31.926Z,27.40
2018-05-25T09:48:00.106Z,27.50
2018-05-25T09:50:28.490Z,27.80
2018-05-25T09:52:56.662Z,27.90
2018-05-25T09:55:24.819Z,27.90
2018-05-25T09:57:56.966Z,28.20
2018-05-25T10:00:25.882Z,28.40
2018-05-25T10:02:54.023Z,28.90
2018-05-25T10:05:22.196Z,29.00
2018-05-25T10:07:50.409Z,28.90
2018-05-25T10:10:18.644Z,28.90
2018-05-25T10:12:46.823Z,29.40
2018-05-25T10:15:15.049Z,29.80
2018-05-25T10:17:43.232Z,30.10
2018-05-25T10:20:11.373Z,30.50
2018-05-25T10:22:39.560Z,30.10
2018-05-25T10:25:07.684Z,30.60
2018-05-25T10:27:35.817Z,30.90
2018-05-25T10:30:03.960Z,30.90
2018-05-25T10:32:32.082Z,30.90
2018-05-25T10:35:00.992Z,31.30
2018-05-25T10:37:29.932Z,30.90
2018-05-25T10:39:58.098Z,30.80
2018-05-25T10:42:26.247Z,31.20
2018-05-25T10:44:54.424Z,31.50
2018-05-25T10:47:22.982Z,31.40
2018-05-25T10:49:51.122Z,31.80
2018-05-25T10:52:19.260Z,31.40
2018-05-25T10:54:47.414Z,32.20
2018-05-25T10:57:15.598Z,32.20
2018-05-25T10:59:43.722Z,32.90
2018-05-25T11:02:12.671Z,33.40
2018-05-25T11:04:40.867Z,33.50
2018-05-25T11:07:09.006Z,34.10
2018-05-25T11:09:37.171Z,34.40
2018-05-25T11:12:05.335Z,34.80
2018-05-25T11:14:33.535Z,34.70
2018-05-25T11:17:01.699Z,34.90
2018-05-25T11:19:29.867Z,35.20
2018-05-25T11:21:58.045Z,35.90
2018-05-25T11:24:26.222Z,36.00
2018-05-25T11:26:54.397Z,36.20
2018-05-25T11:29:22.565Z,37.20
2018-05-25T11:31:50.743Z,36.90
2018-05-25T11:34:18.949Z,36.80
2018-05-25T11:36:47.108Z,37.80
2018-05-25T11:39:15.254Z,39.10
2018-05-25T11:41:43.451Z,39.10
2018-05-25T11:44:11.569Z,40.50
2018-05-25T11:46:39.795Z,41.10
2018-05-25T11:49:07.947Z,42.10
2018-05-25T11:51:36.104Z,44.50
2018-05-25T11:54:04.243Z,46.10
2018-05-25T11:56:33.182Z,46.00
2018-05-25T11:59:01.359Z,45.40
2018-05-25T12:01:29.551Z,44.70
2018-05-25T12:03:57.699Z,46.10
2018-05-25T12:06:25.850Z,47.80
2018-05-25T12:08:54.024Z,49.00
2018-05-25T12:11:22.237Z,48.50
2018-05-25T12:13:50.424Z,47.40
2018-05-25T12:16:19.342Z,49.20
2018-05-25T12:18:48.459Z,51.90
2018-05-25T12:21:16.662Z,53.80
2018-05-25T12:23:44.791Z,51.80
2018-05-25T12:26:12.978Z,53.20
2018-05-25T12:28:41.130Z,54.00
2018-05-25T12:31:10.066Z,54.90
2018-05-25T12:33:39.015Z,54.90
2018-05-25T12:36:07.197Z,55.80
2018-05-25T12:38:35.400Z,55.10
2018-05-25T12:41:03.540Z,56.80
2018-05-25T12:43:31.712Z,54.50
2018-05-25T12:45:59.969Z,53.30
2018-05-25T12:48:29.017Z,52.60
2018-05-25T12:50:57.199Z,55.80
2018-05-25T12:53:25.427Z,57.10
2018-05-25T12:55:53.582Z,54.30
2018-05-25T12:58:22.629Z,53.20
2018-05-25T13:00:50.772Z,55.80
2018-05-25T13:03:18.921Z,55.50
2018-05-25T13:05:47.119Z,49.90
2018-05-25T13:08:15.249Z,45.60
2018-05-25T13:10:43.415Z,43.90
2018-05-25T13:13:11.633Z,42.00
2018-05-25T13:15:39.781Z,41.60
2018-05-25T13:18:08.736Z,43.50
2018-05-25T13:20:36.903Z,47.80
2018-05-25T13:23:05.086Z,52.00
2018-05-25T13:25:33.255Z,52.10
2018-05-25T13:28:01.440Z,49.10
2018-05-25T13:30:29.602Z,45.30
2018-05-25T13:32:58.194Z,43.40
2018-05-25T13:35:26.327Z,41.40
2018-05-25T13:37:54.517Z,41.10
2018-05-25T13:40:22.728Z,42.50
2018-05-25T13:42:50.878Z,41.50
2018-05-25T13:45:19.071Z,44.60
2018-05-25T13:47:47.194Z,50.10
2018-05-25T13:50:15.347Z,52.70
2018-05-25T13:52:43.507Z,52.80
2018-05-25T13:55:12.464Z,52.90
2018-05-25T13:57:40.636Z,52.80
2018-05-25T14:00:08.778Z,53.20
2018-05-25T14:02:36.946Z,54.10
2018-05-25T14:05:05.123Z,53.30
2018-05-25T14:07:33.314Z,55.10
2018-05-25T14:10:01.516Z,56.10
2018-05-25T14:12:30.410Z,56.20
2018-05-25T14:14:58.531Z,58.60
2018-05-25T14:17:26.691Z,60.00
2018-05-25T14:19:54.812Z,59.00
2018-05-25T14:22:22.945Z,59.80
2018-05-25T14:24:51.074Z,59.50
2018-05-25T14:27:19.664Z,58.70
2018-05-25T14:29:48.572Z,58.80
2018-05-25T14:32:16.718Z,58.70
2018-05-25T14:34:45.671Z,57.60
2018-05-25T14:37:13.815Z,53.00
2018-05-25T14:39:42.017Z,52.30
2018-05-25T14:42:10.145Z,52.40
2018-05-25T14:44:38.319Z,51.70
2018-05-25T14:47:06.507Z,48.50
2018-05-25T14:49:35.404Z,44.50
2018-05-25T14:52:03.548Z,46.50
2018-05-25T14:54:32.472Z,51.00
2018-05-25T14:57:00.629Z,52.30
2018-05-25T14:59:28.806Z,54.00
2018-05-25T15:01:57.003Z,54.50
2018-05-25T15:04:25.195Z,55.40
2018-05-25T15:06:53.353Z,55.00
2018-05-25T15:09:21.527Z,55.90
2018-05-25T15:11:49.693Z,57.30
2018-05-25T15:14:17.988Z,56.60
2018-05-25T15:16:46.112Z,57.30
2018-05-25T15:19:14.249Z,57.20
2018-05-25T15:21:42.432Z,52.50
2018-05-25T15:24:11.349Z,49.30
2018-05-25T15:26:39.514Z,49.90
2018-05-25T15:29:07.665Z,47.70
2018-05-25T15:31:36.613Z,44.40
2018-05-25T15:34:04.806Z,43.00
2018-05-25T15:36:33.048Z,42.10
2018-05-25T15:39:01.241Z,40.70
2018-05-25T15:41:29.440Z,39.00
2018-05-25T15:43:57.564Z,39.30
2018-05-25T15:46:25.758Z,41.30
2018-05-25T15:48:53.936Z,44.50
2018-05-25T15:51:22.186Z,46.90
2018-05-25T15:53:50.347Z,48.20
2018-05-25T15:56:18.556Z,49.30
2018-05-25T15:58:46.722Z,50.40
2018-05-25T16:01:14.878Z,51.30
2018-05-25T16:03:42.999Z,53.10
2018-05-25T16:06:11.142Z,53.00
2018-05-25T16:08:39.352Z,52.90
2018-05-25T16:11:07.487Z,53.20
2018-05-25T16:13:36.002Z,53.80
2018-05-25T16:16:04.187Z,54.60
2018-05-25T16:18:33.943Z,54.50
2018-05-25T16:21:02.117Z,53.70
2018-05-25T16:23:30.265Z,53.60
2018-05-25T16:25:58.434Z,53.10
2018-05-25T16:28:26.596Z,52.50
2018-05-25T16:30:54.808Z,52.20
2018-05-25T16:33:22.940Z,51.70
2018-05-25T16:35:51.960Z,51.10
2018-05-25T16:38:20.085Z,49.80
2018-05-25T16:40:48.331Z,49.80
2018-05-25T16:43:17.020Z,49.70
2018-05-25T16:45:45.149Z,48.60
2018-05-25T16:48:13.291Z,48.00
2018-05-25T16:50:42.197Z,47.40
2018-05-25T16:53:11.110Z,47.70
2018-05-25T16:55:39.240Z,47.80
2018-05-25T16:58:07.415Z,48.00
2018-05-25T17:00:35.672Z,48.20
2018-05-25T17:03:04.431Z,47.70
2018-05-25T17:05:32.630Z,46.10
2018-05-25T17:08:01.005Z,45.90
2018-05-25T17:10:29.147Z,44.80
2018-05-25T17:12:57.410Z,45.40
2018-05-25T17:15:26.315Z,45.00
2018-05-25T17:17:54.469Z,44.10
2018-05-25T17:20:22.612Z,44.60
2018-05-25T17:22:51.204Z,44.40
2018-05-25T17:25:20.132Z,44.30
2018-05-25T17:27:48.331Z,43.80
2018-05-25T17:30:16.469Z,43.10
2018-05-25T17:32:44.639Z,43.00
2018-05-25T17:35:12.832Z,42.80
2018-05-25T17:37:41.023Z,41.90
2018-05-25T17:40:09.178Z,39.30
2018-05-25T17:42:37.326Z,39.20
2018-05-25T17:45:05.465Z,37.90
2018-05-25T17:47:33.687Z,37.80
2018-05-25T17:50:01.862Z,36.40
2018-05-25T17:52:29.981Z,36.10
2018-05-25T17:54:58.155Z,35.50
2018-05-25T17:57:26.302Z,35.20
2018-05-25T17:59:54.484Z,34.30
2018-05-25T18:02:22.614Z,33.10
2018-05-25T18:04:50.770Z,31.50
2018-05-25T18:07:18.924Z,30.20
2018-05-25T18:09:47.856Z,29.00
2018-05-25T18:12:15.994Z,28.70
2018-05-25T18:14:45.140Z,27.70
2018-05-25T18:17:13.314Z,27.10
2018-05-25T18:19:41.486Z,26.70
2018-05-25T18:22:09.696Z,26.00
2018-05-25T18:24:38.620Z,25.50
2018-05-25T18:27:06.790Z,25.50
2018-05-25T18:29:34.983Z,25.20
2018-05-25T18:32:03.854Z,24.90
2018-05-25T18:34:32.025Z,24.40
2018-05-25T18:37:00.703Z,24.50
2018-05-25T18:39:29.620Z,24.20
2018-05-25T18:41:57.779Z,24.10
2018-05-25T18:44:25.950Z,23.90
2018-05-25T18:46:54.084Z,23.80
2018-05-25T18:49:23.250Z,23.60
2018-05-25T18:51:51.438Z,23.50
2018-05-25T18:54:34.194Z,23.40
2018-05-25T18:57:02.425Z,23.50
2018-05-25T18:59:30.590Z,23.30
2018-05-25T19:01:58.824Z,23.00
2018-05-25T19:04:26.986Z,22.70
2018-05-25T19:06:55.141Z,22.70
2018-05-25T19:09:23.278Z,22.60
2018-05-25T19:11:51.442Z,22.30
2018-05-25T19:14:19.633Z,22.30
2018-05-25T19:16:47.809Z,22.20
2018-05-25T19:19:16.086Z,22.10
2018-05-25T19:21:44.253Z,22.10
2018-05-25T19:24:12.419Z,22.30
2018-05-25T19:26:40.597Z,22.10
2018-05-25T19:29:08.730Z,22.10
2018-05-25T19:31:36.932Z,22.20
2018-05-25T19:34:05.213Z,22.10
2018-05-25T19:36:33.379Z,21.90
2018-05-25T19:39:01.559Z,22.10
2018-05-25T19:41:29.772Z,21.90
2018-05-25T19:43:58.686Z,21.70
2018-05-25T19:46:26.881Z,21.70
2018-05-25T19:48:55.102Z,21.60
2018-05-25T19:51:24.046Z,21.50
2018-05-25T19:53:52.384Z,21.60
2018-05-25T19:56:20.541Z,21.40
2018-05-25T19:58:48.698Z,21.30
2018-05-25T20:01:16.837Z,21.00
2018-05-25T20:03:46.006Z,21.10
2018-05-25T20:06:14.410Z,20.90
2018-05-25T20:08:42.574Z,20.90
2018-05-25T20:11:10.758Z,21.00
2018-05-25T20:13:38.912Z,21.00
2018-05-25T20:16:07.131Z,20.80
2018-05-25T20:18:35.306Z,20.70
2018-05-25T20:21:04.335Z,20.70
2018-05-25T20:23:33.383Z,20.70
2018-05-25T20:26:01.567Z,20.80
2018-05-25T20:28:29.845Z,20.70
2018-05-25T20:30:57.982Z,20.50
2018-05-25T20:33:26.127Z,20.40
2018-05-25T20:35:55.091Z,20.30
2018-05-25T20:38:23.290Z,20.30
2018-05-25T20:40:51.490Z,20.50
2018-05-25T20:43:20.481Z,20.50
2018-05-25T20:45:48.629Z,20.40
2018-05-25T20:48:17.526Z,20.50
2018-05-25T20:50:45.709Z,20.10
2018-05-25T20:53:13.924Z,20.50
2018-05-25T20:55:42.131Z,20.20
2018-05-25T20:58:11.141Z,20.10
2018-05-25T21:00:39.343Z,20.20
2018-05-25T21:03:07.516Z,20.10
2018-05-25T21:05:35.682Z,20.10
2018-05-25T21:08:03.833Z,19.90
2018-05-25T21:10:32.761Z,19.90
2018-05-25T21:13:00.898Z,19.70
2018-05-25T21:15:29.048Z,19.80
2018-05-25T21:17:57.929Z,19.70
2018-05-25T21:20:26.083Z,19.70
2018-05-25T21:22:54.240Z,19.80
2018-05-25T21:25:22.392Z,19.90
2018-05-25T21:27:51.019Z,19.80
2018-05-25T21:30:19.206Z,19.80
2018-05-25T21:32:48.141Z,19.60
2018-05-25T21:35:16.289Z,19.60
2018-05-25T21:37:44.450Z,19.40
2018-05-25T21:40:14.360Z,19.50
2018-05-25T21:42:43.331Z,19.40
2018-05-25T21:45:11.479Z,19.40
2018-05-25T21:47:40.340Z,19.60
2018-05-25T21:50:08.642Z,19.50
2018-05-25T21:52:36.849Z,19.40
2018-05-25T21:55:05.438Z,19.50
2018-05-25T21:57:33.593Z,19.60
2018-05-25T22:00:01.824Z,19.60
2018-05-25T22:02:29.959Z,19.60
2018-05-25T22:04:58.153Z,19.80
2018-05-25T22:07:26.295Z,19.60
2018-05-25T22:10:04.374Z,19.50
2018-05-25T22:12:32.766Z,19.50
2018-05-25T22:15:00.930Z,19.10
2018-05-25T22:17:29.165Z,19.20
2018-05-25T22:19:57.365Z,19.20
2018-05-25T22:22:26.472Z,19.10
2018-05-25T22:24:54.614Z,18.80
2018-05-25T22:27:22.775Z,18.90
2018-05-25T22:29:51.611Z,19.00
2018-05-25T22:32:19.780Z,19.00
2018-05-25T22:34:47.967Z,19.00
2018-05-25T22:37:16.168Z,18.90
2018-05-25T22:39:45.070Z,18.80
2018-05-25T22:42:12.522Z,18.80
2018-05-25T22:44:58.668Z,18.70
2018-05-25T22:47:44.851Z,18.70
2018-05-25T22:50:30.837Z,18.60
2018-05-25T22:53:03.684Z,18.50
2018-05-25T22:55:32.572Z,18.60
2018-05-25T22:58:00.743Z,18.60
2018-05-25T23:00:29.694Z,18.50
2018-05-25T23:02:57.866Z,18.50
2018-05-25T23:05:25.997Z,18.40
2018-05-25T23:07:54.178Z,18.40
2018-05-25T23:10:22.337Z,18.40
2018-05-25T23:12:50.491Z,18.50
2018-05-25T23:15:19.401Z,18.30
2018-05-25T23:17:47.555Z,18.20
2018-05-25T23:20:15.736Z,18.40
2018-05-25T23:22:43.879Z,18.30
2018-05-25T23:25:12.039Z,18.20
2018-05-25T23:27:40.198Z,18.00
2018-05-25T23:30:08.361Z,18.00
2018-05-25T23:32:36.509Z,18.00
2018-05-25T23:35:04.633Z,18.00
2018-05-25T23:37:32.895Z,18.00
2018-05-25T23:40:01.445Z,17.90
2018-05-25T23:42:29.627Z,17.90
2018-05-25T23:44:57.842Z,18.00
2018-05-25T23:47:26.018Z,18.00
2018-05-25T23:49:54.817Z,18.00
2018-05-25T23:52:23.724Z,17.90
2018-05-25T23:54:51.877Z,17.90
2018-05-25T23:57:20.120Z,17.80
2018-05-25T23:59:48.294Z,17.60
